Terminal Aerodrome Forecast
Issued by NWS

Home | Current Version | Previous Version | Graphics & Text | Print | Product List | Glossary On
Versions: 1 2 3 4 5 6 7 8 9 10 11 12 13 14 15 16 17 18 19 20 21 22 23 24
000
FTUS43 KFGF 191132
TAFBJI
TAF
KBJI 191132Z 1912/2012 24006KT P6SM BKN200
     FM191800 26008KT P6SM VCSH OVC090
     FM192100 27009KT P6SM BKN150
     FM200200 28005KT P6SM SCT200
     FM201000 27005KT P6SM BKN100=

USA.gov is the U.S. government's official web portal to all federal, state and local government web resources and services.